Latest Coastal Weather Observations for Willis Island

IDQ60701

Issued at 9:45 pm EST Thursday 31 July 2014 (issued every 10 minutes, with the page automatically refreshed every 10 minutes)

About coastal observations | Map of coastal stations | Coastal observations for QLD | Marine services | Other Formats
Station Details ID: 200283 Name: WILLIS ISLAND Lat: -16.29 Lon: 149.97 Height: 9.29 m
Data from the previous 72 hours. | See also: Recent months at Willis Island
Date/Time
EST
Temp

°C
Wind Pressure Rain
since 9am
mm
Weather Cloud Vis
km
Sea
Height
m
Swell
Dir
 
Speed
knots
Gust
knots
hPa Trend Height
m
Period
s
Dir
31/09:30pm 24.2 ESE 14 17 1017.0 - 0.0 - - - - - - -
31/09:00pm 24.1 ESE 14 16 1016.8 F 0.0 Distant precip. Mostly cloudy 30 1 - - -
31/08:30pm 24.0 ESE 16 19 1016.7 - 0.0 - - - - - - -
31/08:00pm 24.0 SE 13 15 1016.5 - 0.0 - - - - - - -
31/07:30pm 24.0 SE 13 15 1016.2 - 0.0 - - - - - - -
31/07:00pm 24.0 ESE 13 15 1015.9 - 0.0 - - - - - - -
31/06:30pm 24.0 ESE 14 16 1015.7 - 0.0 - - - - - - -
31/06:00pm 24.1 ESE 13 15 1015.5 F 0.0 Distant precip. Mostly cloudy 30 1 0.5 10 E
31/05:30pm 24.2 ESE 13 15 1015.4 - 0.0 - - - - - - -
31/05:00pm 24.2 ESE 13 14 1015.2 - 0.0 - - - - - - -
31/04:30pm 24.4 ESE 12 14 1015.1 - 0.0 - - - - - - -
31/04:00pm 24.6 SE 12 14 1015.1 - 0.0 - - - - - - -
31/03:30pm 24.7 SE 12 15 1015.0 - 0.0 - - - - - - -
31/03:00pm 25.0 SE 13 16 1014.9 S 0.0 Distant precip. Mostly cloudy 30 1 0.5 9 E
31/02:30pm 25.2 ESE 12 15 1015.0 - 0.0 - - - - - - -
31/02:00pm 25.7 ESE 12 14 1015.2 - 0.0 - - - - - - -
31/01:30pm 25.4 SE 12 14 1015.6 - 0.0 - - - - - - -
31/01:00pm 25.4 ESE 12 15 1015.8 - 0.0 - - - - - - -
31/12:30pm 25.5 ESE 12 14 1016.2 - 0.0 - - - - - - -
31/12:00pm 25.6 ESE 13 14 1016.6 F 0.0 Distant precip. Mostly cloudy 30 1 0.5 7 E
31/11:30am 25.7 ESE 12 14 1017.0 - 0.0 - - - - - - -
31/11:00am 25.9 ESE 13 15 1017.2 - 0.0 - - - - - - -
31/10:30am 25.7 SE 12 15 1017.5 - 0.0 - - - - - - -
31/10:00am 25.5 ESE 12 13 1017.7 - 0.0 - - - - - - -
31/09:30am 25.3 ESE 12 14 1017.8 - 0.0 - - - - - - -
31/09:00am 24.9 SE 12 14 1017.8 F 0.0 Fine Mostly clear 30 1 0.5 6 E
31/08:30am 24.8 SE 12 14 1017.7 - 0.0 - - - - - - -
31/08:00am 24.2 ESE 12 13 1017.6 - 0.0 - - - - - - -
31/07:30am 23.7 ESE 11 13 1017.6 - 0.0 - - - - - - -
31/07:00am 23.2 ESE 12 15 1017.4 - 0.0 - - - - - - -
31/06:30am 23.1 ESE 13 15 1017.2 - 0.0 - - - - - - -
31/06:00am 23.1 ESE 12 14 1017.1 S 0.0 Fine Partly cloudy 30 1 0.8 8 E
31/05:30am 23.0 ESE 13 15 1016.8 - 0.0 - - - - - - -
31/05:00am 23.3 ESE 12 14 1016.8 - 0.0 - - - - - - -
31/04:30am 23.2 ESE 13 15 1016.6 - 0.0 - - - - - - -
31/04:00am 23.3 ESE 14 16 1016.6 - 0.0 - - - - - - -
31/03:30am 23.3 ESE 17 20 1016.6 - 0.0 - - - - - - -
31/03:00am 23.4 ESE 18 20 1016.6 - 0.0 - - - - - - -
31/02:30am 23.5 E 18 21 1016.7 - 0.0 - - - - - - -
31/02:00am 23.5 E 18 22 1016.9 - 0.0 - - - - - - -
31/01:30am 23.6 E 20 22 1017.1 - 0.0 - - - - - - -
31/01:00am 23.6 E 20 23 1017.2 - 0.0 - - - - - - -
31/12:30am 23.7 E 20 23 1017.5 - 0.0 - - - - - - -
31/12:00am 23.8 E 19 22 1017.5 - 0.0 - - - - - - -
 
Date/Time
EST
Temp

°C
Wind Pressure Rain
since 9am
mm
Weather Cloud Vis
km
Sea
Height
m
Swell
Dir
 
Speed
knots
Gust
knots
hPa Trend Height
m
Period
s
Dir
30/11:30pm 23.8 E 19 22 1017.7 - 0.0 - - - - - - -
30/11:00pm 23.7 E 17 19 1017.9 - 0.0 - - - - - - -
30/10:30pm 23.8 E 18 21 1018.0 - 0.0 - - - - - - -
30/10:00pm 23.9 E 18 21 1018.0 - 0.0 - - - - - - -
30/09:30pm 23.8 E 18 21 1017.8 - 0.0 - - - - - - -
30/09:00pm 23.7 E 19 22 1017.8 F 0.0 Distant precip. Mostly cloudy 30 1 - - -
30/08:30pm 23.8 ESE 20 23 1017.7 - 0.0 - - - - - - -
30/08:00pm 23.9 ESE 20 23 1017.5 - 0.0 - - - - - - -
30/07:30pm 23.8 ESE 19 22 1017.1 - 0.0 - - - - - - -
30/07:00pm 23.7 ESE 19 21 1016.8 - 0.0 - - - - - - -
30/06:30pm 23.7 ESE 19 22 1016.5 - 0.0 - - - - - - -
30/06:00pm 23.8 ESE 19 23 1016.4 F 0.0 Distant precip. Mostly cloudy 30 1 1.0 9 E
30/05:30pm 24.0 ESE 19 22 1016.4 - 0.0 - - - - - - -
30/05:00pm 24.1 ESE 19 22 1016.3 - 0.0 - - - - - - -
30/04:30pm 24.2 ESE 20 22 1016.2 - 0.0 - - - - - - -
30/04:00pm 24.4 ESE 20 23 1016.0 - 0.0 - - - - - - -
30/03:30pm 24.6 ESE 19 22 1015.9 - 0.0 - - - - - - -
30/03:00pm 24.5 ESE 19 22 1016.0 S 0.0 Distant precip. Mostly cloudy 30 2 1.0 9 E
30/02:30pm 24.7 ESE 19 23 1016.0 - 0.0 - - - - - - -
30/02:00pm 24.8 ESE 19 23 1016.2 - 0.0 - - - - - - -
30/01:30pm 24.8 ESE 20 22 1016.5 - 0.0 - - - - - - -
30/01:00pm 25.2 ESE 20 23 1016.8 - 0.0 - - - - - - -
30/12:30pm 25.9 ESE 19 22 1017.2 - 0.0 - - - - - - -
30/12:04pm 25.5 E 20 22 1017.5 - 0.0 - - - - - - -
30/12:00pm 25.7 ESE 16 19 1017.7 F 0.0 Fine Partly cloudy 30 1 0.5 9 SE
30/11:30am 25.2 SE 16 19 1018.3 - 0.0 - - - - - - -
30/11:00am 24.6 ESE 16 20 1018.7 - 0.0 - - - - - - -
30/10:30am 24.9 ESE 17 19 1019.2 - 0.0 - - - - - - -
30/10:00am 24.9 E 17 20 1019.4 - 0.0 - - - - - - -
30/09:30am 23.9 ESE 16 20 1019.7 - 0.0 - - - - - - -
30/09:00am 25.2 ESE 15 17 1019.7 R 0.0 Distant precip. Mostly cloudy 30 1 0.5 9 SE
30/08:30am 24.6 ESE 14 16 1019.6 - 0.0 - - - - - - -
30/08:00am 24.1 ESE 13 14 1019.3 - 0.0 - - - - - - -
30/07:30am 23.5 E 13 16 1019.1 - 0.0 - - - - - - -
30/07:00am 23.3 E 13 16 1018.8 - 0.0 - - - - - - -
30/06:30am 23.2 E 14 17 1018.5 - 0.0 - - - - - - -
30/06:00am 23.3 E 16 18 1018.1 R 0.0 Distant precip. Mostly cloudy 30 1 0.5 8 SE
30/05:30am 23.2 ESE 15 17 1017.7 - 0.0 - - - - - - -
30/05:00am 23.2 ESE 16 19 1017.4 - 0.0 - - - - - - -
30/04:30am 23.1 ESE 16 19 1017.2 - 0.0 - - - - - - -
30/04:00am 23.5 E 17 19 1017.0 - 0.0 - - - - - - -
30/03:30am 23.4 E 16 18 1017.1 - 0.0 - - - - - - -
30/03:00am 23.5 E 16 19 1017.2 - 0.0 - - - - - - -
30/02:30am 23.6 E 16 18 1017.4 - 0.0 - - - - - - -
30/02:00am 23.2 ESE 17 19 1017.7 - 0.0 - - - - - - -
30/01:30am 22.1 SE 13 18 1018.2 - 0.0 - - - - - - -
30/01:00am 22.5 SE 16 19 1018.5 - 0.0 - - - - - - -
30/12:30am 22.6 SE 20 22 1018.7 - 0.0 - - - - - - -
30/12:00am 23.3 SE 17 20 1018.9 - 0.0 - - - - - - -
 
Date/Time
EST
Temp

°C
Wind Pressure Rain
since 9am
mm
Weather Cloud Vis
km
Sea
Height
m
Swell
Dir
 
Speed
knots
Gust
knots
hPa Trend Height
m
Period
s
Dir
29/11:30pm 23.2 SE 17 21 1019.0 - 0.0 - - - - - - -
29/11:00pm 23.7 ESE 16 18 1019.0 - 0.0 - - - - - - -
29/10:30pm 23.3 SE 16 19 1019.1 - 0.0 - - - - - - -
29/10:00pm 23.2 ESE 21 25 1019.2 - 0.0 - - - - - - -
29/09:30pm 23.5 ESE 21 25 1019.0 - 0.0 - - - - - - -
29/09:00pm 23.7 ESE 21 24 1018.7 F 0.0 Distant precip. Partly cloudy 30 2 - - -
29/08:30pm 23.7 ESE 19 23 1018.5 - 0.0 - - - - - - -
29/08:00pm 23.7 ESE 19 21 1018.5 - 0.0 - - - - - - -
29/07:30pm 23.8 ESE 19 22 1018.2 - 0.0 - - - - - - -
29/07:00pm 23.7 SE 16 21 1018.0 - 0.0 - - - - - - -
29/06:30pm 23.0 SE 20 23 1017.9 - 0.0 - - - - - - -
29/06:10pm 23.1 SE 22 23 1017.7 - 0.0 - - - - - - -
29/06:00pm 23.9 ESE 18 21 1017.5 F 0.0 Distant precip. Mostly cloudy 25 1 1.0 8 E
29/05:30pm 23.9 ESE 15 19 1017.3 - 0.0 - - - - - - -
29/05:00pm 23.6 SE 12 14 1017.2 - 0.0 - - - - - - -
29/04:30pm 23.7 SE 16 18 1017.1 - 0.0 - - - - - - -
29/04:00pm 23.9 SE 16 18 1016.9 - 0.0 - - - - - - -
29/03:30pm 23.8 ESE 17 21 1016.9 - 0.0 - - - - - - -
29/03:00pm 24.6 ESE 14 17 1016.8 F 0.0 Distant precip. Partly cloudy 30 1 1.0 8 E
29/02:30pm 25.0 ESE 20 24 1017.0 - 0.0 - - - - - - -
29/02:00pm 25.3 ESE 17 21 1017.5 - 0.0 - - - - - - -
29/01:30pm 25.4 SE 18 20 1017.9 - 0.0 - - - - - - -
29/01:00pm 25.4 ESE 18 21 1018.2 - 0.0 - - - - - - -
29/12:30pm 25.4 ESE 18 21 1018.6 - 0.0 - - - - - - -
29/12:00pm 25.5 ESE 18 21 1018.9 R 0.0 Fine Partly cloudy 30 2 1.0 8 E
29/11:30am 25.1 SE 19 22 1019.3 - 0.0 - - - - - - -
29/11:00am 25.1 E 16 23 1019.4 - 0.0 - - - - - - -
29/10:30am 25.6 SE 17 20 1019.5 - 0.0 - - - - - - -
29/10:00am 24.8 SE 19 21 1019.8 - 0.0 - - - - - - -
29/09:30am 24.7 SE 19 22 1019.9 - 0.0 - - - - - - -
29/09:00am 24.6 SE 20 24 1019.9 S 0.2 Fine Partly cloudy 30 2 1.0 8 E
29/08:30am 24.4 SE 22 25 1019.7 - 0.2 - - - - - - -
29/08:00am 24.1 SE 19 21 1019.3 - 0.2 - - - - - - -
29/07:30am 24.0 SE 19 23 1019.2 - 0.2 - - - - - - -
29/07:00am 23.2 SE 19 22 1018.9 - 0.2 - - - - - - -
29/06:30am 23.0 SE 19 22 1018.7 - 0.2 - - - - - - -
29/06:00am 23.0 SE 19 22 1018.4 R 0.2 Fine Mostly clear 30 1 1.0 8 E
29/05:30am 22.9 SE 19 22 1018.1 - 0.2 - - - - - - -
29/05:00am 23.0 ESE 18 21 1017.8 - 0.2 - - - - - - -
29/04:30am 23.1 SE 18 20 1017.6 - 0.2 - - - - - - -
29/04:00am 22.9 SE 18 22 1017.5 - 0.2 - - - - - - -
29/03:30am 22.8 SE 17 20 1017.5 - 0.2 - - - - - - -
29/03:00am 22.7 SE 17 20 1017.5 - 0.2 - - - - - - -
29/02:30am 22.9 SE 18 21 1017.5 - 0.2 - - - - - - -
29/02:00am 23.0 ESE 17 22 1017.6 - 0.2 - - - - - - -
29/01:30am 23.2 ESE 17 20 1017.8 - 0.2 - - - - - - -
29/01:00am 23.4 ESE 16 19 1018.1 - 0.2 - - - - - - -
29/12:30am 23.4 E 17 20 1018.3 - 0.2 - - - - - - -
29/12:00am 23.3 E 17 19 1018.4 - 0.2 - - - - - - -
 
Date/Time
EST
Temp

°C
Wind Pressure Rain
since 9am
mm
Weather Cloud Vis
km
Sea
Height
m
Swell
Dir
 
Speed
knots
Gust
knots
hPa Trend Height
m
Period
s
Dir
28/11:30pm 23.3 ESE 17 20 1018.6 - 0.2 - - - - - - -
28/11:00pm 23.3 ESE 18 21 1018.8 - 0.2 - - - - - - -
28/10:30pm 23.3 ESE 18 21 1018.9 - 0.2 - - - - - - -
28/10:00pm 23.4 ESE 18 21 1018.9 - 0.2 - - - - - - -

Other Formats:

Comma delimited format used in spreadsheet applications
http://www.bom.gov.au/fwo/IDQ60701/IDQ60701.94299.axf

JavaScript Object Notation format (JSON) in row-major order
http://www.bom.gov.au/fwo/IDQ60701/IDQ60701.94299.json